createdAt,value
2022-12-16T00:00:20.196Z,6.44
2022-12-16T00:02:49.142Z,6.43
2022-12-16T00:05:20.059Z,6.42
2022-12-16T00:07:51.394Z,6.43
2022-12-16T00:10:19.808Z,6.41
2022-12-16T00:12:47.573Z,6.54
2022-12-16T00:15:15.793Z,6.59
2022-12-16T00:17:43.798Z,6.68
2022-12-16T00:20:12.994Z,6.74
2022-12-16T00:22:40.778Z,6.59
2022-12-16T00:25:08.947Z,6.56
2022-12-16T00:27:37.108Z,6.50
2022-12-16T00:30:06.066Z,6.55
2022-12-16T00:32:34.209Z,6.56
2022-12-16T00:35:02.170Z,6.66
2022-12-16T00:37:29.767Z,6.61
2022-12-16T00:39:57.369Z,6.62
2022-12-16T00:42:25.085Z,6.62
2022-12-16T00:44:53.119Z,6.65
2022-12-16T00:47:22.569Z,6.56
2022-12-16T00:49:50.047Z,6.62
2022-12-16T00:52:17.501Z,6.66
2022-12-16T00:54:45.042Z,6.71
2022-12-16T00:57:13.067Z,6.51
2022-12-16T00:59:40.952Z,6.64
2022-12-16T01:02:11.148Z,6.65
2022-12-16T01:04:38.939Z,6.60
2022-12-16T01:07:06.433Z,6.77
2022-12-16T01:09:34.556Z,6.79
2022-12-16T01:12:02.366Z,6.82
2022-12-16T01:14:29.892Z,6.77
2022-12-16T01:16:57.553Z,6.72
2022-12-16T01:19:25.235Z,6.82
2022-12-16T01:21:52.802Z,6.87
2022-12-16T01:24:21.154Z,6.80
2022-12-16T01:26:49.537Z,6.83
2022-12-16T01:29:19.279Z,6.97
2022-12-16T01:31:46.963Z,7.05
2022-12-16T01:34:14.575Z,7.06
2022-12-16T01:36:42.670Z,7.08
2022-12-16T01:39:11.103Z,7.10
2022-12-16T01:41:39.206Z,6.89
2022-12-16T01:44:17.977Z,6.85
2022-12-16T01:47:19.563Z,6.86
2022-12-16T01:49:56.227Z,6.96
2022-12-16T01:52:30.799Z,6.88
2022-12-16T01:55:07.347Z,6.87
2022-12-16T01:57:49.121Z,6.76
2022-12-16T02:00:17.599Z,6.81
2022-12-16T02:02:46.976Z,6.81
2022-12-16T02:05:23.237Z,6.76
2022-12-16T02:08:15.041Z,6.68
2022-12-16T02:10:42.959Z,6.70
2022-12-16T02:13:32.343Z,6.81
2022-12-16T02:16:17.234Z,6.70
2022-12-16T02:18:57.974Z,6.77
2022-12-16T02:21:48.884Z,6.79
2022-12-16T02:25:09.045Z,6.85
2022-12-16T02:28:01.096Z,6.98
2022-12-16T02:30:56.809Z,7.10
2022-12-16T02:34:02.066Z,6.90
2022-12-16T02:36:48.417Z,7.01
2022-12-16T02:39:36.340Z,6.78
2022-12-16T02:42:42.361Z,6.81
2022-12-16T02:45:19.994Z,7.06
2022-12-16T02:47:48.239Z,6.81
2022-12-16T02:50:21.725Z,6.80
2022-12-16T02:52:50.775Z,6.54
2022-12-16T02:55:19.886Z,6.72
2022-12-16T02:58:15.512Z,6.59
2022-12-16T03:01:15.500Z,6.52
2022-12-16T03:04:03.461Z,6.45
2022-12-16T03:06:33.829Z,6.42
2022-12-16T03:09:07.499Z,6.49
2022-12-16T03:11:37.577Z,6.73
2022-12-16T03:14:11.053Z,6.97
2022-12-16T03:16:39.225Z,6.88
2022-12-16T03:19:11.794Z,6.76
2022-12-16T03:21:49.802Z,6.72
2022-12-16T03:24:17.777Z,6.80
2022-12-16T03:26:58.487Z,6.80
2022-12-16T03:29:38.979Z,6.79
2022-12-16T03:32:18.792Z,6.59
2022-12-16T03:34:56.271Z,6.64
2022-12-16T03:37:29.394Z,6.74
2022-12-16T03:40:00.571Z,6.82
2022-12-16T03:42:28.721Z,6.64
2022-12-16T03:44:57.241Z,6.70
2022-12-16T03:47:29.995Z,6.71
2022-12-16T03:49:58.395Z,6.71
2022-12-16T03:52:25.934Z,6.68
2022-12-16T03:54:53.515Z,6.59
2022-12-16T03:57:21.595Z,6.57
2022-12-16T03:59:49.107Z,6.49
2022-12-16T04:02:16.760Z,6.72
2022-12-16T04:04:44.517Z,6.79
2022-12-16T04:07:20.996Z,6.73
2022-12-16T04:09:51.780Z,6.72
2022-12-16T04:12:39.374Z,6.68
2022-12-16T04:15:26.643Z,6.80
2022-12-16T04:18:12.924Z,6.74
2022-12-16T04:21:03.666Z,6.88
2022-12-16T04:23:53.359Z,6.70
2022-12-16T04:26:22.077Z,6.48
2022-12-16T04:28:50.174Z,6.40
2022-12-16T04:31:18.244Z,6.49
2022-12-16T04:34:04.517Z,6.46
2022-12-16T04:36:51.194Z,6.47
2022-12-16T04:39:37.927Z,6.46
2022-12-16T04:42:23.936Z,6.52
2022-12-16T04:45:10.565Z,6.42
2022-12-16T04:47:57.606Z,6.20
2022-12-16T04:50:44.148Z,6.20
2022-12-16T04:53:30.777Z,6.12
2022-12-16T04:56:17.493Z,6.00
2022-12-16T04:59:03.827Z,6.02
2022-12-16T05:01:50.302Z,6.19
2022-12-16T05:04:36.670Z,6.11
2022-12-16T05:07:23.475Z,6.06
2022-12-16T05:10:10.156Z,6.06
2022-12-16T05:12:56.453Z,6.11
2022-12-16T05:15:42.791Z,6.08
2022-12-16T05:18:33.534Z,6.29
2022-12-16T05:21:20.966Z,6.24
2022-12-16T05:24:07.303Z,6.27
2022-12-16T05:27:10.807Z,6.04
2022-12-16T05:29:57.406Z,6.21
2022-12-16T05:32:43.876Z,6.14
2022-12-16T05:35:31.712Z,5.92
2022-12-16T05:38:18.253Z,5.97
2022-12-16T05:41:21.149Z,5.90
2022-12-16T05:44:07.321Z,5.86
2022-12-16T05:46:53.550Z,5.85
2022-12-16T05:49:40.312Z,6.01
2022-12-16T05:52:26.647Z,5.83
2022-12-16T05:55:12.771Z,5.82
2022-12-16T05:57:59.463Z,5.79
2022-12-16T06:00:46.076Z,5.87
2022-12-16T06:03:33.181Z,5.82
2022-12-16T06:06:19.610Z,5.82
2022-12-16T06:09:05.918Z,5.83
2022-12-16T06:11:52.547Z,5.78
2022-12-16T06:14:39.327Z,5.70
2022-12-16T06:17:25.197Z,5.79
2022-12-16T06:20:11.257Z,5.76
2022-12-16T06:22:58.154Z,5.80
2022-12-16T06:25:44.115Z,5.52
2022-12-16T06:28:30.433Z,5.57
2022-12-16T06:31:16.926Z,5.42
2022-12-16T06:34:03.159Z,5.65
2022-12-16T06:36:49.930Z,5.49
2022-12-16T06:39:35.937Z,5.51
2022-12-16T06:42:21.875Z,5.71
2022-12-16T06:45:08.168Z,5.49
2022-12-16T06:47:54.114Z,5.60
2022-12-16T06:50:44.811Z,5.61
2022-12-16T06:53:31.915Z,5.54
2022-12-16T06:56:18.584Z,5.66
2022-12-16T06:59:04.702Z,5.69
2022-12-16T07:01:51.729Z,5.78
2022-12-16T07:04:39.588Z,5.74
2022-12-16T07:07:25.680Z,5.67
2022-12-16T07:10:12.256Z,5.78
2022-12-16T07:12:58.294Z,6.02
2022-12-16T07:15:44.366Z,6.20
2022-12-16T07:18:30.537Z,6.12
2022-12-16T07:21:16.985Z,6.14
2022-12-16T07:24:03.443Z,6.17
2022-12-16T07:26:49.665Z,6.08
2022-12-16T07:29:36.738Z,6.10
2022-12-16T07:32:23.688Z,6.07
2022-12-16T07:35:10.436Z,6.23
2022-12-16T07:37:58.106Z,6.16
2022-12-16T07:40:45.232Z,6.10
2022-12-16T07:43:31.690Z,6.15
2022-12-16T07:46:18.888Z,6.12
2022-12-16T07:49:04.947Z,6.18
2022-12-16T07:51:51.248Z,6.06
2022-12-16T07:54:51.430Z,6.02
2022-12-16T07:57:37.672Z,5.93
2022-12-16T08:00:24.117Z,5.96
2022-12-16T08:03:14.220Z,5.72
2022-12-16T08:06:00.548Z,5.78
2022-12-16T08:08:47.242Z,5.71
2022-12-16T08:11:33.259Z,5.86
2022-12-16T08:14:20.006Z,5.70
2022-12-16T08:17:06.165Z,5.86
2022-12-16T08:19:52.417Z,5.96
2022-12-16T08:22:40.761Z,5.58
2022-12-16T08:25:26.878Z,5.65
2022-12-16T08:28:14.902Z,5.62
2022-12-16T08:31:01.445Z,5.58
2022-12-16T08:33:48.021Z,5.43
2022-12-16T08:36:34.385Z,5.33
2022-12-16T08:39:21.224Z,5.27
2022-12-16T08:42:07.290Z,5.46
2022-12-16T08:44:53.193Z,5.67
2022-12-16T08:47:39.431Z,5.41
2022-12-16T08:50:26.224Z,5.32
2022-12-16T08:53:13.069Z,5.47
2022-12-16T08:56:00.304Z,5.52
2022-12-16T08:58:46.996Z,5.56
2022-12-16T09:01:33.848Z,5.49
2022-12-16T09:04:20.686Z,5.71
2022-12-16T09:07:07.403Z,5.78
2022-12-16T09:09:53.402Z,5.55
2022-12-16T09:12:40.637Z,5.48
2022-12-16T09:15:27.265Z,5.38
2022-12-16T09:18:15.322Z,5.62
2022-12-16T09:21:01.382Z,5.94
2022-12-16T09:24:01.070Z,6.15
2022-12-16T09:26:48.144Z,6.31
2022-12-16T09:29:34.178Z,6.28
2022-12-16T09:32:20.943Z,6.43
2022-12-16T09:35:13.299Z,6.50
2022-12-16T09:38:05.383Z,6.46
2022-12-16T09:40:52.575Z,6.57
2022-12-16T09:44:21.845Z,6.73
2022-12-16T09:47:22.517Z,6.80
2022-12-16T09:50:13.042Z,6.80
2022-12-16T09:53:10.780Z,6.61
2022-12-16T09:56:00.009Z,6.71
2022-12-16T09:58:52.075Z,6.98
2022-12-16T10:01:40.957Z,6.89
2022-12-16T10:04:27.752Z,7.26
2022-12-16T10:07:19.429Z,7.28
2022-12-16T10:10:27.451Z,7.45
2022-12-16T10:13:25.279Z,7.68
2022-12-16T10:16:20.651Z,7.57
2022-12-16T10:19:31.819Z,7.60
2022-12-16T10:22:40.045Z,7.69
2022-12-16T10:25:30.597Z,7.85
2022-12-16T10:28:36.042Z,8.15
2022-12-16T10:31:31.779Z,7.90
2022-12-16T10:34:18.784Z,8.07
2022-12-16T10:37:11.632Z,7.78
2022-12-16T10:40:03.574Z,7.99
2022-12-16T10:42:55.992Z,8.13
2022-12-16T10:45:57.177Z,8.29
2022-12-16T10:48:56.312Z,8.18
2022-12-16T10:51:47.490Z,8.31
2022-12-16T10:54:40.060Z,8.02
2022-12-16T10:57:57.085Z,7.59
2022-12-16T11:01:00.742Z,7.64
2022-12-16T11:03:50.213Z,7.68
2022-12-16T11:06:45.516Z,7.37
2022-12-16T11:10:00.741Z,7.24
2022-12-16T11:12:51.107Z,7.34
2022-12-16T11:15:41.959Z,7.39
2022-12-16T11:18:40.386Z,7.46
2022-12-16T11:21:32.793Z,7.59
2022-12-16T11:24:25.106Z,7.46
2022-12-16T11:27:17.336Z,7.48
2022-12-16T11:30:17.176Z,7.57
2022-12-16T11:33:10.894Z,7.18
2022-12-16T11:36:02.141Z,7.62
2022-12-16T11:39:00.337Z,7.74
2022-12-16T11:41:54.002Z,7.40
2022-12-16T11:44:47.728Z,7.44
2022-12-16T11:48:00.377Z,7.56
2022-12-16T11:51:09.790Z,7.36
2022-12-16T11:54:19.725Z,7.63
2022-12-16T11:57:08.647Z,7.65
2022-12-16T12:00:00.379Z,7.46
2022-12-16T12:03:18.375Z,7.45
2022-12-16T12:06:43.472Z,7.50
2022-12-16T12:09:39.970Z,7.71
2022-12-16T12:12:33.505Z,7.96
2022-12-16T12:15:25.575Z,8.18
2022-12-16T12:18:27.467Z,8.45
2022-12-16T12:21:37.923Z,8.20
2022-12-16T12:24:33.395Z,8.22
2022-12-16T12:27:25.644Z,8.27
2022-12-16T12:30:39.704Z,8.28
2022-12-16T12:33:58.219Z,8.51
2022-12-16T12:36:56.259Z,8.69
2022-12-16T12:39:55.378Z,8.32
2022-12-16T12:43:13.461Z,8.24
2022-12-16T12:46:44.504Z,8.74
2022-12-16T12:49:51.427Z,8.71
2022-12-16T12:52:50.894Z,8.65
2022-12-16T12:55:42.730Z,8.74
2022-12-16T12:58:29.544Z,8.19
2022-12-16T13:01:17.376Z,8.49
2022-12-16T13:04:13.441Z,8.53
2022-12-16T13:07:00.277Z,8.41
2022-12-16T13:09:56.575Z,8.45
2022-12-16T13:12:49.041Z,8.58
2022-12-16T13:16:08.861Z,8.39
2022-12-16T13:18:55.763Z,8.33
2022-12-16T13:21:54.821Z,7.61
2022-12-16T13:24:46.077Z,7.93
2022-12-16T13:27:35.101Z,7.90
2022-12-16T13:30:31.488Z,7.71
2022-12-16T13:33:39.943Z,7.95
2022-12-16T13:36:26.602Z,7.60
2022-12-16T13:39:18.837Z,7.34
2022-12-16T13:42:08.899Z,7.38
2022-12-16T13:45:01.667Z,7.20
2022-12-16T13:47:53.690Z,7.38
2022-12-16T13:51:00.695Z,7.45
2022-12-16T13:53:50.041Z,7.79
2022-12-16T13:56:45.141Z,7.40
2022-12-16T13:59:51.242Z,7.43
2022-12-16T14:02:51.370Z,7.40
2022-12-16T14:05:48.062Z,7.56
2022-12-16T14:08:38.529Z,7.48
2022-12-16T14:11:39.428Z,7.46
2022-12-16T14:14:41.595Z,7.36
2022-12-16T14:17:45.654Z,7.41
2022-12-16T14:20:49.228Z,7.45
2022-12-16T14:24:00.588Z,7.87
2022-12-16T14:26:47.702Z,7.49
2022-12-16T14:29:54.924Z,7.58
2022-12-16T14:32:53.541Z,7.69
2022-12-16T14:35:45.070Z,7.69
2022-12-16T14:38:44.426Z,7.73
2022-12-16T14:41:38.255Z,7.79
2022-12-16T14:44:37.384Z,7.97
2022-12-16T14:47:23.781Z,8.02
2022-12-16T14:50:13.202Z,8.05
2022-12-16T14:52:59.248Z,7.75
2022-12-16T14:55:53.889Z,7.69
2022-12-16T14:58:42.625Z,7.47
2022-12-16T15:01:32.276Z,7.49
2022-12-16T15:04:24.114Z,7.78
2022-12-16T15:07:13.728Z,7.83
2022-12-16T15:10:06.160Z,7.72
2022-12-16T15:13:00.022Z,7.85
2022-12-16T15:16:06.115Z,8.05
2022-12-16T15:19:04.235Z,8.06
2022-12-16T15:21:53.934Z,7.96
2022-12-16T15:24:45.131Z,7.88
2022-12-16T15:28:02.781Z,7.79
2022-12-16T15:30:58.680Z,7.88
2022-12-16T15:33:49.703Z,7.84
2022-12-16T15:36:51.477Z,7.77
2022-12-16T15:39:37.795Z,7.84
2022-12-16T15:42:25.345Z,7.62
2022-12-16T15:45:11.585Z,7.88
2022-12-16T15:47:57.579Z,7.94
2022-12-16T15:50:46.793Z,7.91
2022-12-16T15:53:49.191Z,7.58
2022-12-16T15:56:52.313Z,7.63
2022-12-16T15:59:44.237Z,8.00
2022-12-16T16:02:45.514Z,7.86
2022-12-16T16:05:37.293Z,7.99
2022-12-16T16:08:24.596Z,7.95
2022-12-16T16:11:13.635Z,8.07
2022-12-16T16:14:07.241Z,8.06
2022-12-16T16:16:57.301Z,7.91
2022-12-16T16:19:45.713Z,7.80
2022-12-16T16:22:34.338Z,7.86
2022-12-16T16:25:22.534Z,7.66
2022-12-16T16:28:09.238Z,7.38
2022-12-16T16:30:55.955Z,7.20
2022-12-16T16:33:42.718Z,7.01
2022-12-16T16:36:33.426Z,7.06
2022-12-16T16:39:20.750Z,7.23
2022-12-16T16:42:07.500Z,7.20
2022-12-16T16:44:54.097Z,7.11
2022-12-16T16:47:40.987Z,7.29
2022-12-16T16:50:32.309Z,7.18
2022-12-16T16:53:18.399Z,7.24
2022-12-16T16:56:04.894Z,7.51
2022-12-16T16:58:53.544Z,7.45
2022-12-16T17:01:39.692Z,7.44
2022-12-16T17:04:26.240Z,7.49
2022-12-16T17:07:12.898Z,7.40
2022-12-16T17:09:59.329Z,7.55
2022-12-16T17:12:48.532Z,7.63
2022-12-16T17:15:39.050Z,7.62
2022-12-16T17:18:26.515Z,7.55
2022-12-16T17:21:13.097Z,7.63
2022-12-16T17:23:59.183Z,7.67
2022-12-16T17:26:45.694Z,7.56
2022-12-16T17:29:41.967Z,7.44
2022-12-16T17:32:29.046Z,7.65
2022-12-16T17:35:15.654Z,7.29
2022-12-16T17:38:02.674Z,7.25
2022-12-16T17:40:49.126Z,7.59
2022-12-16T17:43:36.012Z,7.44
2022-12-16T17:46:25.900Z,7.57
2022-12-16T17:49:16.285Z,7.24
2022-12-16T17:52:03.024Z,7.14
2022-12-16T17:54:49.975Z,7.11
2022-12-16T17:57:36.232Z,7.14
2022-12-16T18:00:23.450Z,7.01
2022-12-16T18:03:09.755Z,7.26
2022-12-16T18:05:56.576Z,7.22
2022-12-16T18:08:43.606Z,7.10
2022-12-16T18:11:29.769Z,7.23
2022-12-16T18:14:16.001Z,7.26
2022-12-16T18:17:02.544Z,7.42
2022-12-16T18:19:49.359Z,7.35
2022-12-16T18:22:35.909Z,7.30
2022-12-16T18:25:22.656Z,7.36
2022-12-16T18:28:09.382Z,7.47
2022-12-16T18:30:55.936Z,7.32
2022-12-16T18:33:43.407Z,7.51
2022-12-16T18:36:29.629Z,7.55
2022-12-16T18:39:15.627Z,7.47
2022-12-16T18:42:07.690Z,7.43
2022-12-16T18:45:00.656Z,7.55
2022-12-16T18:47:47.188Z,7.51
2022-12-16T18:50:37.785Z,7.49
2022-12-16T18:53:25.255Z,7.61
2022-12-16T18:56:19.397Z,7.51
2022-12-16T18:59:06.002Z,7.53
2022-12-16T19:01:52.938Z,7.52
2022-12-16T19:04:39.746Z,7.48
2022-12-16T19:07:26.183Z,7.63
2022-12-16T19:10:13.232Z,7.78
2022-12-16T19:12:59.283Z,7.80
2022-12-16T19:15:45.303Z,7.83
2022-12-16T19:18:32.810Z,7.65
2022-12-16T19:21:19.521Z,7.88
2022-12-16T19:24:07.446Z,7.70
2022-12-16T19:26:56.536Z,7.67
2022-12-16T19:29:43.818Z,7.38
2022-12-16T19:32:31.290Z,7.26
2022-12-16T19:35:17.893Z,7.62
2022-12-16T19:38:04.048Z,7.64
2022-12-16T19:40:51.623Z,7.77
2022-12-16T19:43:40.162Z,7.80
2022-12-16T19:46:26.845Z,7.49
2022-12-16T19:49:12.989Z,7.48
2022-12-16T19:51:59.542Z,7.37
2022-12-16T19:54:46.022Z,7.43
2022-12-16T19:57:32.235Z,7.51
2022-12-16T20:00:18.279Z,7.26
2022-12-16T20:03:04.550Z,7.35
2022-12-16T20:05:51.538Z,7.30
2022-12-16T20:08:38.403Z,7.30
2022-12-16T20:11:26.251Z,7.40
2022-12-16T20:14:14.500Z,7.13
2022-12-16T20:17:01.566Z,7.27
2022-12-16T20:19:48.211Z,7.40
2022-12-16T20:22:34.405Z,7.34
2022-12-16T20:25:21.278Z,7.21
2022-12-16T20:28:07.344Z,7.27
2022-12-16T20:30:53.605Z,7.21
2022-12-16T20:33:42.703Z,7.17
2022-12-16T20:36:29.271Z,7.32
2022-12-16T20:39:15.726Z,7.35
2022-12-16T20:42:02.186Z,7.34
2022-12-16T20:44:48.706Z,7.39
2022-12-16T20:47:34.941Z,7.32
2022-12-16T20:50:21.244Z,7.38
2022-12-16T20:53:07.701Z,7.46
2022-12-16T20:55:56.205Z,7.28
2022-12-16T20:58:42.766Z,7.41
2022-12-16T21:01:29.546Z,7.43
2022-12-16T21:04:15.959Z,7.29
2022-12-16T21:07:02.689Z,7.47
2022-12-16T21:09:49.268Z,7.38
2022-12-16T21:12:35.792Z,7.47
2022-12-16T21:15:22.450Z,7.52
2022-12-16T21:18:08.544Z,7.58
2022-12-16T21:20:56.625Z,7.59
2022-12-16T21:23:42.985Z,7.52
2022-12-16T21:26:29.623Z,7.51
2022-12-16T21:29:16.289Z,7.65
2022-12-16T21:32:03.140Z,7.53
2022-12-16T21:34:50.256Z,7.58
2022-12-16T21:37:36.876Z,7.65
2022-12-16T21:40:24.589Z,7.77
2022-12-16T21:43:10.773Z,7.98
2022-12-16T21:45:57.278Z,8.06
2022-12-16T21:48:43.694Z,7.96
2022-12-16T21:51:30.627Z,7.88
2022-12-16T21:54:17.317Z,7.91
2022-12-16T21:57:04.114Z,8.04
2022-12-16T22:00:10.469Z,7.63
2022-12-16T22:02:59.879Z,7.59
2022-12-16T22:05:59.527Z,7.63
2022-12-16T22:08:46.078Z,7.57
2022-12-16T22:11:33.163Z,7.61
2022-12-16T22:14:19.287Z,7.78
2022-12-16T22:17:06.575Z,7.81
2022-12-16T22:19:53.171Z,7.79
2022-12-16T22:22:47.136Z,7.79
2022-12-16T22:25:33.041Z,7.70
2022-12-16T22:28:19.157Z,7.70
2022-12-16T22:31:15.626Z,7.73
2022-12-16T22:34:03.129Z,7.72
2022-12-16T22:36:49.776Z,7.77
2022-12-16T22:42:43.572Z,7.20
2022-12-16T22:45:29.929Z,7.03
2022-12-16T22:48:16.001Z,7.23
2022-12-16T22:51:02.359Z,7.25
2022-12-16T22:53:48.514Z,7.36
2022-12-16T22:56:35.669Z,7.21
2022-12-16T22:59:22.168Z,7.18
2022-12-16T23:02:08.517Z,7.25
2022-12-16T23:04:55.454Z,7.22
2022-12-16T23:07:43.297Z,7.40
2022-12-16T23:10:30.161Z,7.36
2022-12-16T23:13:16.612Z,7.26
2022-12-16T23:16:04.100Z,7.34
2022-12-16T23:18:50.418Z,7.27
2022-12-16T23:21:37.495Z,7.53
2022-12-16T23:24:24.520Z,7.46
2022-12-16T23:27:11.293Z,7.58
2022-12-16T23:29:57.432Z,7.60
2022-12-16T23:32:44.906Z,7.46
2022-12-16T23:35:31.930Z,7.58
2022-12-16T23:38:20.291Z,7.62
2022-12-16T23:41:06.290Z,7.61
2022-12-16T23:43:52.429Z,7.63
2022-12-16T23:46:39.582Z,7.67
2022-12-16T23:49:25.704Z,7.60
2022-12-16T23:52:12.115Z,7.68
2022-12-16T23:54:58.988Z,7.64
2022-12-16T23:57:45.855Z,7.70
